Time;durP1;ratioP1;P1;durP2;ratioP2;P2;SDS_P1;SDS_P2;PMS_P1;PMS_P2;Temp;Humidity;BMP_temperature;BMP_pressure;BME280_temperature;BME280_humidity;BME280_pressure;Samples;Min_cycle;Max_cycle;Signal;HPM_P1;HPM_P2
2021/11/20 00:00:02;;;;;;;35.15;26.63;;;;;;;8.73;100.00;99461.63;2086393;28;20253;-71
2021/11/20 00:01:07;;;;;;;29.02;25.75;;;;;;;8.74;100.00;99435.81;2086100;28;20545;-72
2021/11/20 00:02:09;;;;;;;27.55;24.92;;;;;;;8.73;100.00;99444.88;2085858;28;20230;-71
2021/11/20 00:03:13;;;;;;;29.02;26.13;;;;;;;8.73;100.00;99444.88;2086948;28;20280;-72
2021/11/20 00:04:14;;;;;;;28.27;25.58;;;;;;;8.73;100.00;99447.53;2087000;28;20305;-72
2021/11/20 00:05:19;;;;;;;28.83;25.83;;;;;;;8.71;100.00;99447.03;2086044;28;20231;-72
2021/11/20 00:06:22;;;;;;;29.73;26.77;;;;;;;8.73;100.00;99444.88;2086680;28;20218;-72
2021/11/20 00:07:25;;;;;;;30.63;27.42;;;;;;;8.69;100.00;99443.84;2085745;28;20241;-71
2021/11/20 00:08:27;;;;;;;29.88;26.88;;;;;;;8.71;100.00;99452.34;2086229;28;20655;-70
2021/11/20 00:09:30;;;;;;;29.83;26.75;;;;;;;8.68;100.00;99443.03;2086154;28;20690;-70
2021/11/20 00:10:34;;;;;;;30.05;27.20;;;;;;;8.66;100.00;99453.16;2078520;28;20222;-70
2021/11/20 00:11:38;;;;;;;30.95;27.88;;;;;;;8.69;100.00;99457.94;2086300;28;20739;-70
2021/11/20 00:12:41;;;;;;;28.77;25.70;;;;;;;8.69;100.00;99457.16;2085871;28;20313;-70
2021/11/20 00:13:43;;;;;;;30.48;27.20;;;;;;;8.69;100.00;99460.59;2086274;28;20227;-69
2021/11/20 00:14:44;;;;;;;28.40;25.60;;;;;;;8.70;100.00;99456.88;2086144;28;20223;-70
2021/11/20 00:15:51;;;;;;;28.87;25.97;;;;;;;8.72;100.00;99457.38;2085641;28;20223;-70
2021/11/20 00:16:54;;;;;;;28.52;25.55;;;;;;;8.74;100.00;99449.91;2093419;28;20783;-74
2021/11/20 00:17:58;;;;;;;28.67;25.60;;;;;;;8.71;100.00;99445.16;2086092;28;20234;-69
2021/11/20 00:18:59;;;;;;;27.23;24.55;;;;;;;8.76;100.00;99460.28;2078298;28;20231;-70
2021/11/20 00:20:01;;;;;;;28.20;25.40;;;;;;;8.73;100.00;99455.53;2086336;28;20227;-70
2021/11/20 00:21:04;;;;;;;28.75;25.95;;;;;;;8.76;100.00;99457.63;2086095;28;20576;-71
2021/11/20 00:22:10;;;;;;;28.73;25.90;;;;;;;8.74;100.00;99462.44;2086307;28;20618;-70
2021/11/20 00:23:13;;;;;;;30.23;26.40;;;;;;;8.80;100.00;99449.91;2086544;28;20745;-70
2021/11/20 00:24:20;;;;;;;28.75;26.08;;;;;;;8.87;100.00;99459.19;2086871;28;20230;-70
2021/11/20 00:25:24;;;;;;;32.20;26.42;;;;;;;8.82;100.00;99461.06;2094123;28;20246;-73
2021/11/20 00:26:33;;;;;;;28.48;25.63;;;;;;;8.82;100.00;99451.22;2095998;28;20783;-70
2021/11/20 00:27:36;;;;;;;28.05;25.27;;;;;;;8.82;100.00;99459.19;2095939;28;20229;-70
2021/11/20 00:28:43;;;;;;;28.10;25.17;;;;;;;8.80;100.00;99465.88;2089543;28;20268;-71
2021/11/20 00:29:45;;;;;;;29.02;26.05;;;;;;;8.82;100.00;99451.22;2087561;28;20314;-70
2021/11/20 00:30:54;;;;;;;28.10;25.45;;;;;;;8.82;100.00;99447.75;2079633;28;20294;-71
2021/11/20 00:31:58;;;;;;;28.42;25.40;;;;;;;8.80;100.00;99456.03;2096645;28;20699;-70
2021/11/20 00:33:04;;;;;;;29.05;25.92;;;;;;;8.79;100.00;99451.78;2095773;28;20222;-71
2021/11/20 00:34:08;;;;;;;27.80;25.10;;;;;;;8.76;100.00;99458.41;2088164;28;20279;-71
2021/11/20 00:35:19;;;;;;;29.13;25.95;;;;;;;8.77;100.00;99435.25;2087566;28;20594;-71
2021/11/20 00:36:22;;;;;;;27.80;24.83;;;;;;;8.81;100.00;99432.88;2096004;28;20743;-71
2021/11/20 00:37:24;;;;;;;29.83;26.75;;;;;;;8.77;100.00;99443.25;2086589;28;20269;-71
2021/11/20 00:38:27;;;;;;;28.42;25.48;;;;;;;8.79;100.00;99438.47;2087639;28;20704;-70
2021/11/20 00:39:31;;;;;;;29.27;26.17;;;;;;;8.79;100.00;99443.78;2088339;28;20223;-71
2021/11/20 00:40:36;;;;;;;27.45;24.58;;;;;;;8.79;100.00;99435.81;2087536;28;20223;-71
2021/11/20 00:41:38;;;;;;;29.35;26.35;;;;;;;8.80;100.00;99439.25;2087473;28;20232;-71
2021/11/20 00:42:40;;;;;;;29.00;26.05;;;;;;;8.77;100.00;99457.38;2087434;28;20644;-71
2021/11/20 00:43:44;;;;;;;28.00;25.30;;;;;;;8.85;100.00;99439.22;2079405;28;20238;-71
2021/11/20 00:44:47;;;;;;;28.27;25.35;;;;;;;8.84;100.00;99427.78;2087555;28;20249;-70
2021/11/20 00:45:49;;;;;;;26.88;24.17;;;;;;;8.84;100.00;99441.09;2087449;28;20253;-71
2021/11/20 00:46:52;;;;;;;27.25;24.75;;;;;;;8.80;100.00;99429.41;2079279;28;20254;-71
2021/11/20 00:47:53;;;;;;;27.65;24.58;;;;;;;8.83;100.00;99439.50;2087154;28;20222;-71
2021/11/20 00:48:55;;;;;;;26.63;23.90;;;;;;;8.84;100.00;99435.75;2087489;28;20723;-71
2021/11/20 00:50:01;;;;;;;26.63;24.13;;;;;;;8.82;100.00;99427.28;2079750;28;20224;-72
2021/11/20 00:51:05;;;;;;;26.60;23.98;;;;;;;8.85;100.00;99426.72;2079870;28;20717;-70
2021/11/20 00:52:07;;;;;;;26.70;23.85;;;;;;;8.83;100.00;99412.09;2081470;28;20723;-70
2021/11/20 00:53:08;;;;;;;27.70;24.90;;;;;;;8.83;100.00;99417.41;2087166;28;20219;-72
2021/11/20 00:54:11;;;;;;;27.42;24.35;;;;;;;8.83;100.00;99423.53;2087366;28;20246;-71
2021/11/20 00:55:14;;;;;;;27.02;24.33;;;;;;;8.86;100.00;99422.19;2087428;28;20769;-72
2021/11/20 00:56:17;;;;;;;28.08;25.45;;;;;;;8.87;100.00;99413.94;2087340;28;20232;-71
2021/11/20 00:57:18;;;;;;;28.02;24.95;;;;;;;8.89;100.00;99417.13;2079551;28;20587;-70
2021/11/20 00:58:21;;;;;;;27.38;24.52;;;;;;;8.88;100.00;99415.53;2087357;28;20696;-70
2021/11/20 00:59:23;;;;;;;26.88;24.27;;;;;;;8.85;100.00;99426.72;2087803;28;20230;-73
2021/11/20 01:00:29;;;;;;;28.27;25.23;;;;;;;8.86;100.00;99417.69;2087382;28;20677;-70
2021/11/20 01:01:34;;;;;;;27.80;24.95;;;;;;;8.87;100.00;99419.28;2079795;28;20241;-71
2021/11/20 01:02:36;;;;;;;26.95;24.30;;;;;;;8.91;100.00;99430.94;2079489;28;20227;-71
2021/11/20 01:03:39;;;;;;;27.83;25.10;;;;;;;8.89;100.00;99406.47;2078865;28;20704;-73
2021/11/20 01:04:43;;;;;;;27.35;24.75;;;;;;;8.90;100.00;99412.59;2079604;28;20231;-71
2021/11/20 01:05:44;;;;;;;26.67;24.08;;;;;;;8.89;100.00;99419.78;2079096;28;20310;-70
2021/11/20 01:06:46;;;;;;;28.15;25.35;;;;;;;8.88;100.00;99431.50;2087349;28;20673;-70
2021/11/20 01:07:47;;;;;;;30.23;25.33;;;;;;;8.92;100.00;99413.09;2087067;28;20317;-71
2021/11/20 01:08:52;;;;;;;27.37;24.63;;;;;;;8.92;100.00;99418.44;2078774;28;20318;-70
2021/11/20 01:09:52;;;;;;;27.15;24.45;;;;;;;8.90;100.00;99418.72;2087331;28;20309;-71
2021/11/20 01:11:06;;;;;;;27.90;25.23;;;;;;;8.90;100.00;99413.38;2095644;28;20226;-70
2021/11/20 01:12:12;;;;;;;28.00;25.08;;;;;;;8.92;100.00;99411.25;2095200;28;20296;-71
2021/11/20 01:13:14;;;;;;;28.42;24.25;;;;;;;8.89;100.00;99406.47;2095496;28;20237;-70
2021/11/20 01:14:18;;;;;;;29.85;26.65;;;;;;;8.85;100.00;99421.38;2095546;28;20750;-71
2021/11/20 01:15:21;;;;;;;27.95;25.05;;;;;;;8.92;100.00;99415.75;2103703;28;20225;-71
2021/11/20 01:16:26;;;;;;;27.33;24.58;;;;;;;8.90;100.00;99415.25;2094975;28;20242;-71
2021/11/20 01:17:31;;;;;;;26.83;23.98;;;;;;;8.86;100.00;99411.53;2087723;28;20222;-71
2021/11/20 01:18:34;;;;;;;27.95;25.05;;;;;;;8.91;100.00;99414.19;2087666;28;20234;-70
2021/11/20 01:19:46;;;;;;;27.60;24.40;;;;;;;8.88;100.00;99402.22;2088413;28;20229;-71
2021/11/20 01:20:55;;;;;;;28.55;25.55;;;;;;;8.87;100.00;99416.59;2079701;28;20610;-71
2021/11/20 01:21:59;;;;;;;26.07;23.57;;;;;;;8.88;100.00;99417.41;2078981;28;20417;-71
2021/11/20 01:23:00;;;;;;;26.80;24.20;;;;;;;8.89;100.00;99401.16;2081201;28;20219;-71
2021/11/20 01:24:02;;;;;;;27.37;24.80;;;;;;;8.96;100.00;99401.66;2087328;28;20222;-71
2021/11/20 01:25:04;;;;;;;28.10;25.20;;;;;;;8.94;100.00;99400.31;2087200;28;20223;-70
2021/11/20 01:26:33;;;;;;;26.83;23.83;;;;;;;8.91;100.00;99414.19;2071271;28;20239;-70
2021/11/20 01:27:34;;;;;;;24.95;22.58;;;;;;;8.93;100.00;99412.03;2087048;28;20648;-71
2021/11/20 01:28:57;;;;;;;25.92;23.15;;;;;;;8.93;100.00;99402.19;2086420;28;20241;-71
2021/11/20 01:30:08;;;;;;;25.13;22.52;;;;;;;8.95;100.00;99402.72;2087662;28;20699;-71
2021/11/20 01:31:13;;;;;;;25.45;22.88;;;;;;;8.89;100.00;99387.84;2086789;28;20684;-71
2021/11/20 01:32:20;;;;;;;25.00;22.48;;;;;;;8.90;100.00;99397.41;2080145;28;20639;-71
2021/11/20 01:33:23;;;;;;;27.98;22.92;;;;;;;8.88;100.00;99383.59;2078708;28;20227;-71
2021/11/20 01:34:28;;;;;;;24.88;22.58;;;;;;;8.89;100.00;99379.06;2079266;28;20222;-70
2021/11/20 01:35:30;;;;;;;25.67;23.17;;;;;;;8.89;100.00;99389.72;2087049;28;20302;-71
2021/11/20 01:36:41;;;;;;;25.77;22.77;;;;;;;8.86;100.00;99388.41;2094581;28;20305;-71
2021/11/20 01:37:42;;;;;;;28.17;23.80;;;;;;;8.88;100.00;99409.41;2087250;28;20235;-73
2021/11/20 01:38:48;;;;;;;28.52;25.42;;;;;;;8.91;100.00;99380.38;2087129;28;20223;-71
2021/11/20 01:39:55;;;;;;;26.25;23.75;;;;;;;8.88;100.00;99378.28;2087596;28;20227;-70
2021/11/20 01:41:03;;;;;;;24.83;22.52;;;;;;;8.87;100.00;99376.69;2079807;28;20233;-70
2021/11/20 01:42:24;;;;;;;24.73;22.20;;;;;;;8.92;100.00;99415.75;2091015;28;20228;-71
2021/11/20 01:43:31;;;;;;;25.05;22.63;;;;;;;8.96;100.00;99379.56;2086694;28;20235;-71
2021/11/20 01:44:37;;;;;;;24.27;21.90;;;;;;;8.97;100.00;99373.16;2078882;28;20574;-70
2021/11/20 01:45:47;;;;;;;24.52;21.98;;;;;;;8.93;100.00;99396.84;2087368;28;20235;-71
2021/11/20 01:46:54;;;;;;;23.70;21.38;;;;;;;8.92;100.00;99395.28;2087038;28;20214;-70
2021/11/20 01:48:04;;;;;;;24.88;22.48;;;;;;;8.93;100.00;99375.56;2079139;28;20227;-71
2021/11/20 01:49:16;;;;;;;24.33;21.92;;;;;;;8.95;100.00;99380.63;2080325;28;20223;-70
2021/11/20 01:50:22;;;;;;;26.52;24.02;;;;;;;8.91;100.00;99366.28;2087130;28;20222;-71
2021/11/20 01:51:26;;;;;;;24.65;22.48;;;;;;;8.93;100.00;99402.19;2086495;28;20775;-71
2021/11/20 01:52:40;;;;;;;24.50;22.10;;;;;;;8.93;100.00;99372.13;2079137;28;20254;-70
2021/11/20 01:53:49;;;;;;;27.55;24.85;;;;;;;8.89;100.00;99374.53;2086601;28;20214;-70
2021/11/20 01:54:59;;;;;;;26.55;23.23;;;;;;;8.91;100.00;99358.31;2086924;28;20233;-70
2021/11/20 01:56:23;;;;;;;25.45;23.05;;;;;;;8.93;100.00;99364.94;2086478;28;20227;-71
2021/11/20 01:57:31;;;;;;;26.25;23.55;;;;;;;8.91;100.00;99356.44;2094812;28;20689;-71
2021/11/20 01:58:38;;;;;;;23.60;21.27;;;;;;;8.93;100.00;99343.63;2087705;28;20777;-70
2021/11/20 01:59:57;;;;;;;25.63;22.98;;;;;;;8.90;100.00;99349.53;2080618;28;20738;-72
2021/11/20 02:01:29;;;;;;;25.17;22.73;;;;;;;8.92;100.00;99352.69;2086900;28;20222;-70
2021/11/20 02:02:57;;;;;;;25.25;22.75;;;;;;;8.94;100.00;99366.50;2102846;28;20225;-71
2021/11/20 02:04:09;;;;;;;25.48;22.98;;;;;;;8.93;100.00;99362.25;2094619;28;20221;-71
2021/11/20 02:05:26;;;;;;;26.83;23.15;;;;;;;8.94;100.00;99357.72;2088014;28;20239;-71
2021/11/20 02:06:43;;;;;;;24.45;22.25;;;;;;;8.93;100.00;99358.81;2080324;28;20235;-71
2021/11/20 02:07:52;;;;;;;25.33;23.13;;;;;;;8.92;100.00;99351.91;2079491;28;20563;-71
2021/11/20 02:09:04;;;;;;;24.15;21.88;;;;;;;8.89;100.00;99347.94;2086604;28;20227;-70
2021/11/20 02:10:15;;;;;;;24.05;21.95;;;;;;;8.91;100.00;99353.78;2086381;28;20284;-71
2021/11/20 02:11:30;;;;;;;24.55;22.08;;;;;;;8.91;100.00;99359.09;2086551;28;20738;-71
2021/11/20 02:12:49;;;;;;;25.65;23.15;;;;;;;8.89;100.00;99337.28;2086493;28;20225;-71
2021/11/20 02:13:52;;;;;;;25.15;22.65;;;;;;;8.90;100.00;99346.88;2080986;28;20223;-71
2021/11/20 02:14:57;;;;;;;25.25;22.90;;;;;;;8.95;100.00;99354.81;2086380;28;20242;-71
2021/11/20 02:16:02;;;;;;;25.40;23.25;;;;;;;8.92;100.00;99358.00;2093915;28;20222;-71
2021/11/20 02:17:08;;;;;;;26.13;23.08;;;;;;;8.94;100.00;99336.44;2094999;28;20221;-71
2021/11/20 02:18:16;;;;;;;23.95;21.63;;;;;;;8.95;100.00;99330.06;2094703;28;20257;-71
2021/11/20 02:19:21;;;;;;;24.42;22.00;;;;;;;8.94;100.00;99331.13;2095097;28;20221;-71
2021/11/20 02:20:29;;;;;;;22.95;20.98;;;;;;;8.94;100.00;99333.78;2086503;28;20229;-73
2021/11/20 02:21:39;;;;;;;23.20;21.05;;;;;;;8.97;100.00;99349.22;2086752;28;20218;-71
2021/11/20 02:22:40;;;;;;;24.17;21.48;;;;;;;9.00;100.00;99336.13;2095866;28;20683;-71
2021/11/20 02:23:47;;;;;;;24.33;22.05;;;;;;;9.02;100.00;99325.22;2094237;28;20218;-71
2021/11/20 02:24:48;;;;;;;23.98;21.48;;;;;;;8.99;100.00;99339.88;2078195;28;20737;-72
2021/11/20 02:26:19;;;;;;;23.67;21.48;;;;;;;8.95;100.00;99341.50;2081870;28;20222;-72
2021/11/20 02:27:26;;;;;;;23.30;21.02;;;;;;;8.95;100.00;99341.50;2080410;28;20228;-70
2021/11/20 02:28:39;;;;;;;22.98;20.95;;;;;;;8.95;100.00;99349.50;2079773;28;20259;-72
2021/11/20 02:30:21;;;;;;;23.70;21.42;;;;;;;8.97;100.00;99338.56;2086588;28;20257;-71
2021/11/20 02:31:22;;;;;;;27.00;22.15;;;;;;;8.97;100.00;99325.25;2080999;28;20241;-73
2021/11/20 02:32:25;;;;;;;24.40;21.80;;;;;;;8.95;100.00;99333.53;2078488;28;20223;-71
2021/11/20 02:33:35;;;;;;;23.65;21.48;;;;;;;8.96;100.00;99331.66;2086866;28;20281;-71
2021/11/20 02:34:37;;;;;;;24.13;21.92;;;;;;;8.96;100.00;99324.47;2078641;28;20330;-71
2021/11/20 02:35:44;;;;;;;23.58;21.35;;;;;;;8.96;100.00;99340.44;2080640;28;20709;-71
2021/11/20 02:36:48;;;;;;;23.70;21.60;;;;;;;8.92;100.00;99328.75;2078905;28;20223;-71
2021/11/20 02:37:49;;;;;;;23.30;21.40;;;;;;;8.96;100.00;99337.78;2086485;28;20268;-71
2021/11/20 02:38:58;;;;;;;24.00;21.80;;;;;;;8.98;100.00;99329.50;2078153;28;20223;-72
2021/11/20 02:39:59;;;;;;;23.90;21.90;;;;;;;8.98;100.00;99329.50;2079048;28;20674;-71
2021/11/20 02:41:01;;;;;;;23.33;21.27;;;;;;;8.98;100.00;99332.19;2078414;28;20634;-71
2021/11/20 02:42:08;;;;;;;23.38;21.08;;;;;;;8.98;100.00;99340.16;2078619;28;20603;-71
2021/11/20 02:43:12;;;;;;;23.13;21.00;;;;;;;8.96;100.00;99343.09;2078644;28;20318;-71
2021/11/20 02:44:24;;;;;;;22.58;20.48;;;;;;;8.96;100.00;99343.09;2079368;28;20638;-71
2021/11/20 02:45:34;;;;;;;23.42;21.42;;;;;;;8.94;100.00;99334.56;2078840;28;20740;-71
2021/11/20 02:47:23;;;;;;;23.15;21.25;;;;;;;8.96;100.00;99337.78;2078819;28;20693;-71
2021/11/20 02:48:26;;;;;;;22.88;20.98;;;;;;;8.95;100.00;99365.47;2082930;28;20250;-72
2021/11/20 02:49:32;;;;;;;23.63;21.48;;;;;;;8.92;100.00;99365.22;2078785;28;20242;-71
2021/11/20 02:50:51;;;;;;;25.05;22.58;;;;;;;8.93;100.00;99359.59;2080058;28;20230;-71
2021/11/20 02:51:54;;;;;;;23.75;21.55;;;;;;;8.95;100.00;99356.69;2086248;28;20325;-75
2021/11/20 02:52:56;;;;;;;23.65;21.35;;;;;;;8.94;100.00;99336.44;2086474;28;20328;-71
2021/11/20 02:54:00;;;;;;;24.05;21.80;;;;;;;8.97;100.00;99357.19;2077977;28;20231;-71
2021/11/20 02:55:04;;;;;;;24.95;22.63;;;;;;;8.90;100.00;99343.41;2078693;28;20223;-71
2021/11/20 02:56:10;;;;;;;25.88;23.15;;;;;;;8.90;100.00;99338.09;2078529;28;20720;-71
2021/11/20 02:57:15;;;;;;;24.33;21.85;;;;;;;8.93;100.00;99342.84;2086030;28;20696;-71
2021/11/20 02:58:20;;;;;;;22.50;20.30;;;;;;;8.93;100.00;99340.97;2078672;28;20756;-71
2021/11/20 02:59:24;;;;;;;23.40;21.38;;;;;;;8.94;100.00;99345.22;2085209;28;20302;-71
2021/11/20 03:00:27;;;;;;;23.13;21.13;;;;;;;8.96;100.00;99340.44;2086535;28;20258;-71
2021/11/20 03:01:33;;;;;;;24.35;22.00;;;;;;;8.93;100.00;99340.97;2094846;28;20218;-71
2021/11/20 03:02:35;;;;;;;24.40;22.00;;;;;;;8.91;100.00;99345.78;2094747;28;20680;-71
2021/11/20 03:03:37;;;;;;;23.90;21.70;;;;;;;8.86;100.00;99335.19;2094827;28;20304;-71
2021/11/20 03:04:40;;;;;;;24.48;22.55;;;;;;;8.84;100.00;99355.94;2094347;28;20225;-72
2021/11/20 03:05:43;;;;;;;23.83;21.45;;;;;;;8.82;100.00;99346.66;2086825;28;20646;-71
2021/11/20 03:06:45;;;;;;;23.10;21.00;;;;;;;8.85;100.00;99356.75;2094760;28;20230;-71
2021/11/20 03:07:47;;;;;;;23.15;20.98;;;;;;;8.84;100.00;99360.47;2094722;28;20224;-71
2021/11/20 03:08:48;;;;;;;22.65;20.65;;;;;;;8.84;100.00;99347.97;2094618;28;20221;-71
2021/11/20 03:09:53;;;;;;;23.60;21.27;;;;;;;8.87;100.00;99347.44;2094019;28;20214;-72
2021/11/20 03:11:00;;;;;;;23.48;21.25;;;;;;;8.90;100.00;99346.88;2086823;28;20567;-71
2021/11/20 03:12:05;;;;;;;22.60;20.52;;;;;;;8.89;100.00;99339.16;2086708;28;20225;-71
2021/11/20 03:13:07;;;;;;;23.52;21.33;;;;;;;8.90;100.00;99357.50;2086833;28;20276;-71
2021/11/20 03:14:10;;;;;;;22.45;20.40;;;;;;;8.87;100.00;99357.28;2086174;28;20264;-71
2021/11/20 03:15:18;;;;;;;24.90;22.50;;;;;;;8.84;100.00;99355.94;2087585;28;20253;-71
2021/11/20 03:16:33;;;;;;;24.73;22.45;;;;;;;8.86;100.00;99353.00;2086252;28;20292;-71
2021/11/20 03:17:37;;;;;;;23.27;21.35;;;;;;;8.87;100.00;99363.41;2087407;28;20559;-71
2021/11/20 03:18:40;;;;;;;23.55;21.55;;;;;;;8.86;100.00;99385.75;2094679;28;20243;-72
2021/11/20 03:19:45;;;;;;;24.90;22.50;;;;;;;8.88;100.00;99342.91;2094671;28;20688;-71
2021/11/20 03:20:47;;;;;;;24.92;22.45;;;;;;;8.89;100.00;99358.59;2086638;28;20245;-71
2021/11/20 03:21:52;;;;;;;23.27;21.02;;;;;;;8.86;100.00;99337.88;2086555;28;20582;-71
2021/11/20 03:22:58;;;;;;;23.45;21.20;;;;;;;8.85;100.00;99372.69;2086416;28;20229;-71
2021/11/20 03:24:03;;;;;;;22.35;20.33;;;;;;;8.86;100.00;99380.44;2094883;28;20218;-71
2021/11/20 03:25:09;;;;;;;22.77;20.77;;;;;;;8.92;100.00;99347.38;2094593;28;20604;-71
2021/11/20 03:26:14;;;;;;;21.38;19.48;;;;;;;8.90;100.00;99368.16;2087145;28;20233;-71
2021/11/20 03:27:16;;;;;;;23.30;20.90;;;;;;;8.94;100.00;99371.03;2086059;28;20285;-71
2021/11/20 03:28:17;;;;;;;21.55;19.65;;;;;;;8.91;100.00;99391.03;2086541;28;20237;-71
2021/11/20 03:29:21;;;;;;;22.17;20.27;;;;;;;8.94;100.00;99368.38;2086347;28;20223;-71
2021/11/20 03:30:22;;;;;;;22.50;20.50;;;;;;;8.94;100.00;99371.84;2086177;28;20226;-72
2021/11/20 03:31:25;;;;;;;22.23;20.17;;;;;;;8.95;100.00;99378.78;2086461;28;20226;-71
2021/11/20 03:32:26;;;;;;;21.98;20.20;;;;;;;9.00;100.00;99370.72;2086407;28;20245;-71
2021/11/20 03:33:30;;;;;;;22.13;20.33;;;;;;;8.95;100.00;99368.13;2086260;28;20230;-71
2021/11/20 03:34:32;;;;;;;22.50;20.38;;;;;;;8.94;100.00;99371.03;2086504;28;20218;-71
2021/11/20 03:35:34;;;;;;;21.88;19.95;;;;;;;8.96;100.00;99374.25;2086543;28;20230;-71
2021/11/20 03:36:45;;;;;;;22.45;20.30;;;;;;;8.96;100.00;99369.72;2087406;28;20225;-71
2021/11/20 03:37:55;;;;;;;21.83;19.92;;;;;;;8.95;100.00;99367.34;2086636;28;20305;-71
2021/11/20 03:39:01;;;;;;;21.33;19.45;;;;;;;8.95;100.00;99362.81;2087273;28;20272;-71
2021/11/20 03:40:09;;;;;;;22.35;20.25;;;;;;;8.96;100.00;99371.59;2086225;28;20222;-71
2021/11/20 03:41:10;;;;;;;21.63;19.67;;;;;;;8.95;100.00;99370.78;2094335;28;20255;-71
2021/11/20 03:42:12;;;;;;;21.52;19.60;;;;;;;8.92;100.00;99358.00;2094519;28;20267;-72
2021/11/20 03:43:17;;;;;;;22.45;20.52;;;;;;;8.90;100.00;99388.66;2086920;28;20677;-71
2021/11/20 03:44:20;;;;;;;21.95;19.73;;;;;;;9.01;100.00;99353.69;2086256;28;20581;-72
2021/11/20 03:45:29;;;;;;;22.38;20.15;;;;;;;8.99;100.00;99363.81;2086369;28;20253;-71
2021/11/20 03:46:31;;;;;;;22.73;20.50;;;;;;;9.03;100.00;99378.19;2086943;28;20251;-71
2021/11/20 03:47:33;;;;;;;21.98;19.92;;;;;;;8.96;100.00;99385.69;2085889;28;20238;-71
2021/11/20 03:48:35;;;;;;;22.33;20.40;;;;;;;8.92;100.00;99375.84;2086286;28;20585;-71
2021/11/20 03:49:37;;;;;;;22.50;20.38;;;;;;;8.88;100.00;99388.94;2086222;28;20226;-71
2021/11/20 03:50:39;;;;;;;21.70;19.55;;;;;;;8.90;100.00;99397.41;2085997;28;20219;-71
2021/11/20 03:51:41;;;;;;;22.85;20.38;;;;;;;8.87;100.00;99390.00;2086288;28;20226;-71
2021/11/20 03:52:46;;;;;;;23.98;20.27;;;;;;;8.88;100.00;99391.59;2086487;28;20227;-71
2021/11/20 03:53:51;;;;;;;21.95;19.90;;;;;;;8.91;100.00;99404.31;2086858;28;20223;-71
2021/11/20 03:54:53;;;;;;;21.35;19.52;;;;;;;8.98;100.00;99394.19;2086087;28;20266;-72
2021/11/20 03:55:53;;;;;;;22.67;20.50;;;;;;;8.94;100.00;99405.63;2086068;28;20574;-71
2021/11/20 03:56:56;;;;;;;22.90;20.97;;;;;;;8.96;100.00;99416.81;2086059;28;20295;-71
2021/11/20 03:57:56;;;;;;;23.10;20.67;;;;;;;8.92;100.00;99419.22;2086109;28;20230;-72
2021/11/20 03:59:00;;;;;;;23.50;20.93;;;;;;;8.95;100.00;99410.72;2086029;28;20254;-72
2021/11/20 04:00:09;;;;;;;21.83;19.95;;;;;;;8.98;100.00;99426.09;2095768;28;20357;-71
2021/11/20 04:01:18;;;;;;;22.63;20.38;;;;;;;8.93;100.00;99415.47;2096004;28;20225;-71
2021/11/20 04:02:20;;;;;;;21.95;19.85;;;;;;;8.97;100.00;99421.88;2096915;28;20228;-72
2021/11/20 04:03:22;;;;;;;22.35;20.25;;;;;;;8.95;100.00;99421.34;2095978;28;20636;-71
2021/11/20 04:04:24;;;;;;;23.00;21.08;;;;;;;8.90;100.00;99418.72;2095669;28;20260;-71
2021/11/20 04:05:29;;;;;;;23.55;21.25;;;;;;;8.91;100.00;99420.28;2104442;28;20624;-71
2021/11/20 04:06:31;;;;;;;22.75;20.27;;;;;;;8.88;100.00;99415.53;2095909;28;20784;-71
2021/11/20 04:07:41;;;;;;;21.98;19.98;;;;;;;8.87;100.00;99426.47;2088507;28;20241;-70
2021/11/20 04:08:44;;;;;;;22.38;20.20;;;;;;;8.85;100.00;99423.25;2087879;28;20276;-71
2021/11/20 04:09:52;;;;;;;23.05;20.92;;;;;;;8.83;100.00;99439.50;2088817;28;20688;-71
2021/11/20 04:10:54;;;;;;;22.55;20.45;;;;;;;8.82;100.00;99424.59;2087436;28;20226;-71
2021/11/20 04:11:56;;;;;;;23.00;20.63;;;;;;;8.80;100.00;99418.78;2087824;28;20222;-71
2021/11/20 04:12:57;;;;;;;22.73;20.55;;;;;;;8.80;100.00;99421.44;2096095;28;20655;-71
2021/11/20 04:14:00;;;;;;;22.77;20.63;;;;;;;8.78;100.00;99423.59;2096274;28;20233;-71
2021/11/20 04:15:01;;;;;;;23.38;21.00;;;;;;;8.80;100.00;99437.41;2088054;28;20750;-71
2021/11/20 04:16:04;;;;;;;22.98;20.83;;;;;;;8.80;100.00;99426.75;2087655;28;20317;-71
2021/11/20 04:17:05;;;;;;;23.48;21.15;;;;;;;8.79;100.00;99430.50;2087925;28;20298;-71
2021/11/20 04:18:09;;;;;;;23.85;21.55;;;;;;;8.78;100.00;99434.22;2087238;28;20277;-72
2021/11/20 04:19:10;;;;;;;24.13;21.40;;;;;;;8.78;100.00;99437.69;2087814;28;20257;-71
2021/11/20 04:20:17;;;;;;;22.92;20.65;;;;;;;8.75;100.00;99429.44;2087919;28;20246;-71
2021/11/20 04:21:19;;;;;;;23.38;20.98;;;;;;;8.70;100.00;99422.28;2088215;28;20218;-71
2021/11/20 04:22:21;;;;;;;22.85;20.73;;;;;;;8.72;100.00;99435.31;2079878;28;20223;-71
2021/11/20 04:23:22;;;;;;;23.17;20.85;;;;;;;8.69;100.00;99433.22;2079214;28;20270;-74
2021/11/20 04:24:24;;;;;;;22.57;20.47;;;;;;;8.64;100.00;99426.03;2079391;28;20227;-72
2021/11/20 04:25:48;;;;;;;23.75;21.52;;;;;;;8.64;100.00;99427.91;2087718;28;20245;-71
2021/11/20 04:26:51;;;;;;;22.35;20.23;;;;;;;8.59;100.00;99431.38;2087585;28;20223;-71
2021/11/20 04:27:54;;;;;;;23.25;20.90;;;;;;;8.61;100.00;99429.25;2081518;28;20262;-71
2021/11/20 04:29:11;;;;;;;23.20;20.92;;;;;;;8.55;100.00;99422.34;2080916;28;20231;-70
2021/11/20 04:30:13;;;;;;;22.77;20.42;;;;;;;8.53;100.00;99447.66;2087733;28;21722;-70
2021/11/20 04:31:16;;;;;;;23.27;20.80;;;;;;;8.47;100.00;99437.00;2087598;28;20602;-70
2021/11/20 04:32:17;;;;;;;23.48;21.17;;;;;;;8.43;100.00;99429.88;2087607;28;20256;-71
2021/11/20 04:33:19;;;;;;;23.70;21.50;;;;;;;8.44;100.00;99436.78;2079491;28;20227;-70
2021/11/20 04:34:21;;;;;;;23.63;21.45;;;;;;;8.46;100.00;99437.28;2079472;28;20219;-70
2021/11/20 04:35:25;;;;;;;24.60;21.92;;;;;;;8.41;100.00;99437.31;2087371;28;20708;-73
2021/11/20 04:36:27;;;;;;;23.77;21.58;;;;;;;8.39;100.00;99437.56;2087588;28;20726;-70
2021/11/20 04:37:28;;;;;;;23.58;21.17;;;;;;;8.38;100.00;99449.28;2079772;28;20243;-71
2021/11/20 04:38:33;;;;;;;23.67;21.30;;;;;;;8.39;100.00;99440.25;2079818;28;20234;-70
2021/11/20 04:39:35;;;;;;;26.88;22.25;;;;;;;8.33;100.00;99435.97;2079432;28;20730;-71
2021/11/20 04:40:39;;;;;;;23.35;21.13;;;;;;;8.33;100.00;99420.00;2081454;28;20652;-70
2021/11/20 04:41:45;;;;;;;26.40;21.65;;;;;;;8.38;100.00;99428.00;2089268;28;20285;-70
2021/11/20 04:42:47;;;;;;;24.15;21.65;;;;;;;8.34;100.00;99426.94;2089698;28;20226;-70
2021/11/20 04:43:49;;;;;;;25.02;22.40;;;;;;;8.27;100.00;99431.75;2087487;28;20218;-70
2021/11/20 04:44:51;;;;;;;25.52;22.90;;;;;;;8.23;100.00;99431.47;2087747;28;20555;-70
2021/11/20 04:45:53;;;;;;;23.65;21.27;;;;;;;8.25;100.00;99433.88;2086977;28;20562;-71
2021/11/20 04:46:56;;;;;;;24.73;22.42;;;;;;;8.26;100.00;99446.13;2085676;28;20234;-71
2021/11/20 04:47:58;;;;;;;25.25;22.75;;;;;;;8.22;100.00;99439.72;2087413;28;20712;-70
2021/11/20 04:49:08;;;;;;;25.27;22.80;;;;;;;8.18;100.00;99446.66;2088146;28;20707;-73
2021/11/20 04:50:10;;;;;;;24.55;22.15;;;;;;;8.15;100.00;99433.91;2087442;28;20234;-70
2021/11/20 04:51:13;;;;;;;25.67;23.27;;;;;;;8.15;100.00;99447.19;2079235;28;20638;-70
2021/11/20 04:52:15;;;;;;;26.95;24.17;;;;;;;8.07;100.00;99418.50;2079384;28;20251;-70
2021/11/20 04:53:17;;;;;;;25.45;23.23;;;;;;;8.08;100.00;99433.38;2079416;28;20740;-71
2021/11/20 04:54:18;;;;;;;30.20;23.55;;;;;;;8.01;100.00;99419.63;2083344;28;20223;-70
2021/11/20 04:55:24;;;;;;;26.67;22.57;;;;;;;7.97;100.00;99442.44;2079091;28;20234;-70
2021/11/20 04:56:28;;;;;;;27.33;24.38;;;;;;;7.94;100.00;99439.28;2079668;28;20234;-71
2021/11/20 04:57:31;;;;;;;26.05;23.65;;;;;;;7.97;100.00;99431.81;2079413;28;20605;-71
2021/11/20 04:58:33;;;;;;;26.27;23.67;;;;;;;7.91;100.00;99429.19;2079359;28;20215;-71
2021/11/20 04:59:35;;;;;;;25.83;23.10;;;;;;;7.88;100.00;99450.97;2079427;28;20223;-70
2021/11/20 05:00:41;;;;;;;25.92;23.52;;;;;;;7.87;100.00;99451.25;2079214;28;20325;-71